Holeby, Denmark
Current Conditions -  °F | °C
As of 12:50 PM on Thursday 27 Nov 2014 (Local Time) from EKAV Reporting Station
Scattered Clouds Scattered Clouds  
Wind Chill: 37°   Ceiling: Unl
Heat Index: 45°   Visibility: 6mi
Dew Point: 36°   Wind: 20mph
Humidity: 71%   Direction: 120°ESE
Pressure: 30.12"   Gusts: NA
Location:  54.71°N, 11.46°E
Report Text: EKAV 271150Z AUTO 12017KT 9999NDV FEW018/// SCT022///07/02 Q1020
Loading
Personal Weather Stations






























Interactive Weather Map New forecast layout! Learn more

10-Day Weather Forecast

Advertisements
Track Severe Weather on mobile